Data for 03/23/2017

Time Sea-Level Adjusted Pressure Absolute Pressure Temperature Relative Humidity Dew Point   
(mb) (inHg) (mb) (inHg) (C) (F) (%) (C) (F)
00:05 1012 29.88 841 24.83 4 39.3 73 -0.4 31.3
00:10 1012 29.88 841 24.83 3.9 39.1 74 -0.3 31.4
00:15 1012 29.88 841 24.83 3.9 39.1 73 -0.5 31.2
00:20 1012 29.88 842 24.86 4.1 39.4 72 -0.6 30.9
00:25 1012 29.88 842 24.86 4.2 39.5 71 -0.6 30.9
00:30 1012 29.88 842 24.86 4.2 39.5 69 -1.1 30
00:35 1012 29.88 842 24.86 4.4 39.9 67 -1.1 30
00:40 1012 29.88 842 24.86 4.5 40.1 66 -1.2 29.8
00:45 1012 29.88 842 24.86 4.4 40 68 -1 30.1
00:50 1012 29.88 842 24.86 4.4 39.8 67 -1.2 29.8
00:55 1012 29.88 842 24.86 4.4 40 66 -1.4 29.5
01:00 1012 29.88 842 24.86 4.7 40.5 64 -1.4 29.5
01:05 1012 29.88 842 24.86 4.9 40.8 64 -1.4 29.4
01:10 1012 29.88 842 24.86 4.8 40.6 65 -1.2 29.9
01:15 1012 29.88 842 24.86 4.5 40.1 67 -1 30.2
01:20 1012 29.88 841 24.83 4.3 39.7 67 -1.2 29.9
01:25 1012 29.88 841 24.83 4.3 39.8 69 -0.9 30.3
01:30 1012 29.88 841 24.83 4.3 39.7 70 -0.8 30.6
01:35 1012 29.88 842 24.86 4.2 39.5 70 -0.7 30.7
01:40 1012 29.88 842 24.86 4.2 39.6 69 -0.9 30.3
01:45 1012 29.88 842 24.86 4.2 39.6 69 -0.9 30.4
01:50 1012 29.88 842 24.86 4.3 39.7 69 -1 30.3
01:55 1012 29.88 842 24.86 4.4 39.9 67 -1.2 29.8
02:00 1012 29.88 842 24.86 4.6 40.3 67 -1 30.2
02:05 1012 29.88 841 24.83 4.5 40.1 68 -0.9 30.3
02:10 1012 29.88 841 24.83 4.4 39.9 68 -1 30.2
02:15 1012 29.88 841 24.83 4.4 40 67 -1.2 29.9
02:20 1012 29.88 841 24.83 4.6 40.2 65 -1.4 29.5
02:25 1012 29.88 841 24.83 4.7 40.5 65 -1.4 29.5
02:30 1012 29.88 841 24.83 4.8 40.6 63 -1.6 29.1
02:35 1012 29.88 841 24.83 5 40.9 64 -1.3 29.7
02:40 1012 29.88 841 24.83 4.9 40.8 66 -1 30.2
02:45 1012 29.88 841 24.83 4.8 40.7 65 -1.1 30
02:50 1012 29.88 842 24.86 4.9 40.8 65 -1.2 29.8
02:55 1012 29.88 842 24.86 4.9 40.9 65 -1.1 30
03:00 1012 29.88 842 24.86 4.8 40.7 66 -0.9 30.4
03:05 1012 29.88 842 24.86 4.8 40.7 66 -1.1 30.1
03:10 1012 29.88 842 24.86 5 40.9 64 -1.2 29.8
03:15 1012 29.88 842 24.86 5.1 41.2 63 -1.4 29.5
03:20 1012 29.88 842 24.86 5.2 41.4 60 -2 28.4
03:25 1012 29.88 842 24.86 5.4 41.7 59 -1.9 28.6
03:30 1012 29.88 841 24.83 5.4 41.7 59 -1.9 28.6
03:35 1012 29.88 841 24.83 5.3 41.5 61 -1.5 29.3
03:40 1012 29.88 841 24.83 5.1 41.1 62 -1.6 29.1
03:45 1012 29.88 841 24.83 5 40.9 64 -1.2 29.9
03:50 1012 29.88 841 24.83 4.5 40 68 -0.8 30.5
03:55 1012 29.88 841 24.83 4.2 39.5 69 -1 30.3
04:00 1012 29.88 841 24.83 4 39.3 70 -0.9 30.3
04:05 1012 29.88 841 24.83 4.1 39.3 68 -1.3 29.6
04:10 1012 29.88 841 24.83 4.2 39.6 67 -1.3 29.6
04:15 1012 29.88 841 24.83 4.2 39.6 66 -1.6 29
04:20 1012 29.88 841 24.83 4.2 39.5 65 -1.8 28.8
04:25 1012 29.88 841 24.83 4 39.2 64 -2.1 28.2
04:30 1012 29.88 841 24.83 4 39.2 64 -2.3 27.9
04:35 1012 29.88 841 24.83 4 39.2 63 -2.4 27.8
04:40 1012 29.88 841 24.83 3.9 39.1 63 -2.4 27.6
04:45 1012 29.88 841 24.83 3.8 38.9 64 -2.4 27.7
04:50 1012 29.88 841 24.83 3.7 38.7 64 -2.4 27.8
04:55 1012 29.88 841 24.83 3.7 38.7 64 -2.4 27.8
05:00 1012 29.88 841 24.83 3.7 38.7 66 -2.1 28.2
05:05 1012 29.88 841 24.83 3.5 38.2 67 -2.1 28.2
05:10 1012 29.88 842 24.86 3.3 37.9 67 -2.3 27.9
05:15 1012 29.88 842 24.86 3.3 38 66 -2.5 27.6
05:20 1012 29.88 842 24.86 3.6 38.6 63 -2.7 27.1
05:25 1012 29.88 842 24.86 3.9 39 63 -2.5 27.4
05:30 1013 29.91 842 24.86 4 39.1 63 -2.5 27.4
05:35 1013 29.91 842 24.86 3.9 39.1 63 -2.4 27.7
05:40 1013 29.91 842 24.86 4 39.2 64 -2.3 27.9
05:45 1013 29.91 842 24.86 3.9 39.1 64 -2.3 27.9
05:50 1013 29.91 842 24.86 3.9 39.1 64 -2.3 27.9
05:55 1013 29.91 842 24.86 4 39.2 63 -2.5 27.6
06:00 1013 29.91 842 24.86 4 39.2 63 -2.4 27.7
06:05 1013 29.91 842 24.86 4 39.3 63 -2.4 27.7
06:10 1013 29.91 842 24.86 4 39.2 63 -2.4 27.8
06:15 1013 29.91 842 24.86 3.9 39.1 64 -2.3 27.8
06:20 1013 29.91 842 24.86 3.9 39 63 -2.4 27.6
06:25 1013 29.91 842 24.86 3.8 38.9 64 -2.4 27.6
06:30 1013 29.91 842 24.86 3.9 39 63 -2.5 27.5
06:35 1013 29.91 842 24.86 3.9 39 64 -2.4 27.7
06:40 1013 29.91 843 24.89 3.8 38.9 64 -2.3 27.8
06:45 1013 29.91 843 24.89 3.9 39 64 -2.4 27.7
06:50 1013 29.91 843 24.89 3.9 39 64 -2.4 27.7
06:55 1013 29.91 843 24.89 3.8 38.9 64 -2.4 27.7
07:00 1013 29.91 843 24.89 3.8 38.9 63 -2.5 27.6
07:05 1013 29.91 843 24.89 3.9 38.9 64 -2.4 27.7
07:10 1013 29.91 843 24.89 4 39.2 63 -2.4 27.7
07:15 1013 29.91 843 24.89 4 39.1 64 -2.3 27.9
07:20 1013 29.91 843 24.89 4 39.2 63 -2.3 27.8
07:25 1014 29.94 843 24.89 3.9 39.1 63 -2.4 27.6
07:30 1014 29.94 843 24.89 4 39.2 63 -2.3 27.8
07:35 1014 29.94 843 24.89 4.1 39.3 63 -2.3 27.8
07:40 1014 29.94 843 24.89 4 39.3 64 -2.2 28
07:45 1014 29.94 843 24.89 4 39.2 64 -2.1 28.2
07:50 1014 29.94 843 24.89 4 39.2 64 -2.1 28.2
07:55 1014 29.94 843 24.89 4.1 39.4 64 -2.1 28.3
08:00 1014 29.94 843 24.89 4.1 39.3 65 -2 28.5
08:05 1014 29.94 843 24.89 3.9 39.1 65 -2 28.4
08:10 1014 29.94 843 24.89 3.9 39.1 65 -2.1 28.2
08:15 1014 29.94 843 24.89 4 39.3 64 -2.2 28.1
08:20 1014 29.94 843 24.89 4.1 39.5 64 -2 28.4
08:25 1014 29.94 843 24.89 4.2 39.6 64 -2 28.4
08:30 1014 29.94 843 24.89 4.2 39.6 64 -2 28.3
08:35 1014 29.94 843 24.89 4.1 39.4 67 -1.4 29.5
08:40 1014 29.94 843 24.89 3.8 38.8 70 -1.2 29.8
08:45 1014 29.94 844 24.92 3.7 38.6 70 -1.3 29.7
08:50 1014 29.94 844 24.92 3.6 38.5 73 -0.9 30.5
08:55 1014 29.94 844 24.92 3.6 38.4 72 -1 30.1
09:00 1014 29.94 844 24.92 3.6 38.6 73 -0.8 30.5
09:05 1014 29.94 844 24.92 3.8 38.8 72 -0.8 30.6
09:10 1015 29.97 844 24.92 3.9 39 70 -1 30.2
09:15 1015 29.97 844 24.92 4 39.3 69 -1.1 30
09:20 1015 29.97 844 24.92 4.2 39.6 69 -1 30.2
09:25 1015 29.97 844 24.92 4.7 40.4 66 -1.1 30.1
09:30 1015 29.97 844 24.92 5 41.1 61 -1.9 28.6
09:35 1015 29.97 844 24.92 4.9 40.9 60 -2.1 28.3
09:40 1015 29.97 844 24.92 5 41.1 59 -2.2 28.1
09:45 1015 29.97 844 24.92 5.2 41.3 59 -2.2 28.1
09:50 1015 29.97 844 24.92 5.2 41.3 60 -1.9 28.5
09:55 1015 29.97 844 24.92 5.3 41.6 59 -2.1 28.2
10:00 1015 29.97 844 24.92 5.2 41.3 59 -2.2 28.1
10:05 1015 29.97 844 24.92 5.1 41.2 58 -2.5 27.5
10:10 1015 29.97 844 24.92 5.3 41.6 58 -2.3 27.9
10:15 1015 29.97 844 24.92 5.5 41.9 57 -2.4 27.6
10:20 1015 29.97 844 24.92 5.7 42.2 57 -2.3 27.9
10:25 1015 29.97 844 24.92 5.8 42.5 56 -2.3 27.9
10:30 1015 29.97 844 24.92 6.1 42.9 56 -2.1 28.3
10:35 1015 29.97 844 24.92 6 42.8 54 -2.5 27.5
10:40 1015 29.97 844 24.92 6.2 43.2 54 -2.4 27.6
10:45 1015 29.97 844 24.92 6.3 43.3 53 -2.5 27.5
10:50 1015 29.97 844 24.92 6.4 43.5 53 -2.6 27.3
10:55 1015 29.97 844 24.92 6.2 43.2 53 -2.6 27.4
11:00 1015 29.97 844 24.92 6.6 43.9 50 -3 26.6
11:05 1015 29.97 844 24.92 7.6 45.7 46 -3.2 26.2
11:10 1015 29.97 844 24.92 8.4 47 42 -3.9 24.9
11:15 1015 29.97 844 24.92 8.3 47 46 -2.6 27.3
11:20 1015 29.97 844 24.92 7.9 46.1 46 -3 26.6
11:25 1015 29.97 844 24.92 7.2 45 47 -3.4 25.9
11:30 1015 29.97 844 24.92 7.2 44.9 46 -3.6 25.5
11:35 1015 29.97 844 24.92 7.3 45.1 46 -3.5 25.7
11:40 1015 29.97 844 24.92 7.3 45.2 45 -3.8 25.1
11:45 1015 29.97 844 24.92 8 46.3 42 -4 24.8
11:50 1015 29.97 844 24.92 8.1 46.6 41 -4.4 24.2
11:55 1015 29.97 844 24.92 8.2 46.8 41 -4.4 24.1
12:00 1015 29.97 844 24.92 7.2 45 43 -4.5 23.9
12:05 1015 29.97 844 24.92 7.5 45.4 44 -4 24.8
12:10 1015 29.97 844 24.92 6.9 44.3 45 -4.1 24.5
12:15 1015 29.97 844 24.92 7.5 45.5 42 -4.7 23.6
12:20 1015 29.97 844 24.92 7.9 46.3 43 -4 24.8
12:25 1015 29.97 844 24.92 8.1 46.5 40 -4.5 23.8
12:30 1015 29.97 844 24.92 8.5 47.3 38 -4.9 23.2
12:35 1014 29.94 844 24.92 9.3 48.8 37 -4.6 23.8
12:40 1014 29.94 844 24.92 9.6 49.2 38 -4.1 24.6
12:45 1014 29.94 844 24.92 9.1 48.4 37 -4.8 23.4
12:50 1014 29.94 844 24.92 9.6 49.3 35 -4.9 23.1
12:55 1014 29.94 844 24.92 9.8 49.7 37 -4.2 24.4
13:00 1014 29.94 844 24.92 9.3 48.7 38 -4.2 24.5
13:05 1014 29.94 844 24.92 8.9 48 38 -4.6 23.7
13:10 1014 29.94 844 24.92 9.1 48.3 36 -5.1 22.9
13:15 1014 29.94 844 24.92 8.9 48 37 -4.8 23.3
13:20 1014 29.94 843 24.89 9.3 48.8 36 -4.8 23.3
13:25 1014 29.94 843 24.89 9.4 48.8 39 -4 24.8
13:30 1014 29.94 843 24.89 8.9 48 39 -4.4 24.1
13:35 1014 29.94 843 24.89 10 50.1 35 -4.6 23.8
13:40 1014 29.94 843 24.89 9.7 49.4 37 -4.3 24.2
13:45 1014 29.94 843 24.89 9.4 48.8 37 -4.5 23.9
13:50 1014 29.94 843 24.89 10.1 50.2 35 -4.5 23.9
13:55 1014 29.94 843 24.89 10.1 50.2 37 -3.9 25
14:00 1014 29.94 843 24.89 9.2 48.6 38 -4.3 24.2
14:05 1014 29.94 843 24.89 9.6 49.2 35 -5.3 22.5
14:10 1014 29.94 843 24.89 10 49.9 35 -4.9 23.2
14:15 1014 29.94 843 24.89 10.1 50.2 34 -5.2 22.6
14:20 1014 29.94 843 24.89 10.9 51.7 32 -5.2 22.6
14:25 1014 29.94 843 24.89 11.4 52.4 32 -4.6 23.6
14:30 1014 29.94 843 24.89 10.9 51.6 34 -4.5 23.9
14:35 1014 29.94 843 24.89 10.1 50.1 35 -4.8 23.4
14:40 1014 29.94 843 24.89 9.9 49.9 34 -5 23
14:45 1014 29.94 843 24.89 10.7 51.3 32 -5.1 22.8
14:50 1014 29.94 843 24.89 11.1 52 31 -5.2 22.7
14:55 1014 29.94 843 24.89 11.4 52.4 30 -5.4 22.3
15:00 1014 29.94 843 24.89 12.1 53.8 29 -5.2 22.7
15:05 1014 29.94 843 24.89 11.5 52.8 31 -4.9 23.2
15:10 1014 29.94 843 24.89 11.2 52.2 31 -5.1 22.9
15:15 1014 29.94 843 24.89 10.5 50.9 33 -5.1 22.9
15:20 1014 29.94 843 24.89 11.2 52.1 30 -5.7 21.7
15:25 1014 29.94 843 24.89 10.9 51.6 32 -5.3 22.4
15:30 1014 29.94 843 24.89 10.3 50.6 31 -5.9 21.3
15:35 1014 29.94 843 24.89 10.8 51.4 32 -5.4 22.4
15:40 1014 29.94 843 24.89 10.7 51.3 32 -5.3 22.5
15:45 1014 29.94 843 24.89 10.7 51.3 37 -3.5 25.8
15:50 1014 29.94 843 24.89 10.9 51.5 31 -5.6 22
15:55 1014 29.94 843 24.89 11.1 51.9 31 -5.3 22.4
16:00 1014 29.94 843 24.89 10.6 51 30 -6.1 21
16:05 1014 29.94 843 24.89 11.6 52.9 28 -6.4 20.4
16:10 1014 29.94 844 24.92 12.2 54 26 -6.6 20.2
16:15 1014 29.94 844 24.92 11.9 53.3 26 -7.1 19.3
16:20 1014 29.94 844 24.92 11.4 52.5 27 -7.1 19.2
16:25 1014 29.94 844 24.92 11.8 53.3 26 -7 19.3
16:30 1014 29.94 844 24.92 11.9 53.4 26 -7.2 19.1
16:35 1014 29.94 844 24.92 12.1 53.7 25 -7.4 18.7
16:40 1014 29.94 844 24.92 11.6 52.9 27 -6.6 20.1
16:45 1014 29.94 844 24.92 11.9 53.3 25 -7.3 18.9
16:50 1015 29.97 844 24.92 11.5 52.8 27 -6.9 19.6
16:55 1015 29.97 844 24.92 11.3 52.3 27 -7 19.4
17:00 1015 29.97 844 24.92 11.1 51.9 27 -7.3 18.9
17:05 1015 29.97 844 24.92 11.1 51.9 27 -7.3 18.9
17:10 1015 29.97 844 24.92 11.3 52.3 26 -7.5 18.5
17:15 1015 29.97 844 24.92 11.7 53.1 26 -7.4 18.8
17:20 1015 29.97 844 24.92 11.6 52.9 26 -7.3 18.9
17:25 1015 29.97 844 24.92 11.3 52.4 24 -8.2 17.2
17:30 1015 29.97 844 24.92 11.4 52.4 25 -8 17.6
17:35 1015 29.97 844 24.92 11.8 53.2 25 -7.8 18
17:40 1015 29.97 844 24.92 11.9 53.3 25 -7.5 18.6
17:45 1015 29.97 844 24.92 11.6 52.8 25 -8 17.6
17:50 1015 29.97 844 24.92 11.6 52.9 25 -8 17.7
17:55 1015 29.97 844 24.92 11.7 53 25 -7.9 17.7
18:00 1015 29.97 844 24.92 11.6 53 25 -7.8 17.9
18:05 1015 29.97 844 24.92 11.6 52.9 25 -7.6 18.3
18:10 1015 29.97 844 24.92 11.4 52.5 25 -7.8 17.9
18:15 1015 29.97 844 24.92 11.3 52.4 25 -7.9 17.8
18:20 1015 29.97 844 24.92 11.4 52.4 25 -7.8 17.9
18:25 1015 29.97 845 24.95 11.1 52 26 -7.6 18.3
18:30 1015 29.97 845 24.95 10.5 50.9 26 -8.4 16.9
18:35 1015 29.97 845 24.95 11 51.7 25 -8.1 17.5
18:40 1015 29.97 845 24.95 10.7 51.2 26 -8 17.5
18:45 1015 29.97 845 24.95 10.5 50.9 27 -7.8 17.9
18:50 1016 30 845 24.95 10.2 50.4 28 -7.7 18.2
18:55 1016 30 845 24.95 9.7 49.5 27 -8.2 17.2
19:00 1016 30 845 24.95 9.3 48.8 28 -8.4 16.8
19:05 1016 30 845 24.95 9.3 48.7 28 -8.4 16.8
19:10 1016 30 845 24.95 9.3 48.7 28 -8.4 16.9
19:15 1016 30 845 24.95 9.3 48.7 28 -8.4 16.9
19:20 1016 30 845 24.95 9 48.3 28 -8.4 16.8
19:25 1016 30 845 24.95 8.9 47.9 29 -8.4 16.8
19:30 1016 30 845 24.95 8.8 47.8 30 -8 17.6
19:35 1016 30 845 24.95 8.9 48 30 -7.8 17.9
19:40 1016 30 845 24.95 9 48.2 30 -7.8 18
19:45 1016 30 845 24.95 8.8 47.9 29 -8.4 16.8
19:50 1016 30 845 24.95 8.6 47.4 29 -8.3 17
19:55 1016 30 845 24.95 8.3 47 30 -8.1 17.3
20:00 1016 30 845 24.95 8.1 46.6 31 -7.9 17.9
20:05 1016 30 846 24.98 7.9 46.2 32 -7.8 17.9
20:10 1016 30 846 24.98 7.7 45.9 33 -7.7 18.2
20:15 1016 30 846 24.98 7.7 45.8 33 -7.6 18.2
20:20 1016 30 846 24.98 7.6 45.7 33 -7.6 18.4
20:25 1016 30 846 24.98 7.4 45.3 37 -6.4 20.5
20:30 1016 30 846 24.98 6.5 43.7 41 -5.9 21.4
20:35 1017 30.03 846 24.98 6 42.8 42 -5.9 21.4
20:40 1017 30.03 846 24.98 5.6 42 44 -5.6 21.9
20:45 1017 30.03 846 24.98 5.1 41.2 45 -5.9 21.4
20:50 1017 30.03 846 24.98 5.1 41.1 45 -6 21.2
20:55 1017 30.03 846 24.98 4.9 40.8 46 -5.8 21.5
21:00 1017 30.03 846 24.98 4.4 39.9 49 -5.4 22.2
21:05 1017 30.03 846 24.98 4.1 39.3 49 -5.7 21.7
21:10 1017 30.03 846 24.98 3.9 39 50 -5.6 21.9
21:15 1017 30.03 846 24.98 3.6 38.5 50 -5.9 21.5
21:20 1017 30.03 846 24.98 3.5 38.4 49 -6.1 21
21:25 1017 30.03 846 24.98 3.5 38.3 49 -6.1 21
21:30 1017 30.03 846 24.98 3.4 38.1 50 -6.2 20.9
21:35 1017 30.03 846 24.98 3.5 38.3 47 -6.7 20
21:40 1017 30.03 846 24.98 3.8 38.8 48 -6.2 20.9
21:45 1017 30.03 846 24.98 3.6 38.5 47 -6.8 19.8
21:50 1017 30.03 846 24.98 3.7 38.6 47 -6.5 20.2
21:55 1017 30.03 846 24.98 3.7 38.7 46 -7 19.5
22:00 1017 30.03 846 24.98 3.8 38.9 48 -6.3 20.7
22:05 1017 30.03 846 24.98 3.3 38 49 -6.4 20.5
22:10 1017 30.03 846 24.98 3.2 37.7 50 -6.3 20.6
22:15 1017 30.03 846 24.98 3 37.4 51 -6.3 20.7
22:20 1017 30.03 847 25.01 2.9 37.1 51 -6.4 20.4
22:25 1017 30.03 847 25.01 2.8 37 51 -6.4 20.5
22:30 1017 30.03 847 25.01 2.7 36.8 52 -6.3 20.6
22:35 1017 30.03 847 25.01 3 37.3 49 -6.9 19.7
22:40 1018 30.06 847 25.01 3.3 38 47 -6.8 19.8
22:45 1018 30.06 847 25.01 3.1 37.6 49 -6.5 20.3
22:50 1018 30.06 847 25.01 2.8 37.1 51 -6.4 20.5
22:55 1018 30.06 847 25.01 2.6 36.7 52 -6.3 20.7
23:00 1018 30.06 847 25.01 2.3 36.2 53 -6.3 20.6
23:05 1018 30.06 847 25.01 2.3 36.1 52 -6.5 20.3
23:10 1018 30.06 847 25.01 2.4 36.3 52 -6.5 20.3
23:15 1018 30.06 847 25.01 2.5 36.4 51 -6.6 20.2
23:20 1018 30.06 847 25.01 2.6 36.7 51 -6.6 20.1
23:25 1018 30.06 847 25.01 2.6 36.7 51 -6.4 20.4
23:30 1018 30.06 847 25.01 2.8 37 50 -6.5 20.2
23:35 1018 30.06 847 25.01 3.1 37.6 50 -6.2 20.8
23:40 1018 30.06 847 25.01 3.3 38 49 -6.3 20.6
23:45 1018 30.06 847 25.01 3.4 38.1 50 -6.2 20.8
23:50 1018 30.06 848 25.04 3.1 37.6 51 -5.9 21.3
23:55 1018 30.06 848 25.04 2.7 36.9 51 -6.4 20.5
24:00 1018 30.06 847 25.01 2.7 36.9 52 -6.2 20.9